Terminal Aerodrome Forecast
Issued by NWS Atlanta, GA

Home | Current Version | Previous Version | Text Only | Print | Product List | Glossary On
Versions: 1 2 3 4 5 6 7 8 9 10 11 12 13 14 15 16 17 18 19 20 21 22 23 24 25 26 27 28 29 30 31 32 33 34 35 36 37 38
054
FTUS42 KFFC 280350 AAA
TAFAHN
TAF AMD
KAHN 280350Z 2804/2824 00000KT P6SM VCSH SCT060 BKN100
     FM280800 25003KT 5SM BR SCT030 SCT100
     FM281600 26005KT P6SM SCT040=

USA.gov is the U.S. government's official web portal to all federal, state and local government web resources and services.